Impacts TAF Board
For situational awareness. Not to be used for flight planning purposes.
IDs:

KSEA - Seattle-Tacoma Intl, WA, US

Issued at 0520 UTC 22 Oct 2018
Updated at 0639 UTC 22 Oct 2018
Potential Impact None Slight Moderate High
Time0628Z 22/07Z 22/08Z 22/09Z 22/10Z 22/11Z 22/12Z 22/13Z 22/14Z 22/15Z 22/16Z 22/17Z 22/18Z 22/19Z>>
Type OBS PRVL PRVL PRVL PRVL PRVL PRVL PRVL PRVL PRVL PRVL PRVL PRVL PRVL
VIS 1.75 5 5 5 5 2 0.5 0.5 0.5 0.5 0.5 0.5 0.5 2
CIG -- -- -- -- -- 2 2 2 2 2 2 2 2 4
Cover FEW SCT SCT SCT SCT BKN OVX OVX OVX OVX OVX OVX OVX BKN
FltCat IFR MVFR MVFR MVFR MVFR LIFR LIFR LIFR LIFR LIFR LIFR LIFR LIFR LIFR
WX BR BR BR BR BR BR FG FG FG FG FG FG FG BR
WDir VRB VRB VRB VRB VRB VRB VRB VRB VRB VRB VRB VRB VRB 30
WSpd 0 3 3 3 3 3 3 3 3 3 3 3 3 4
WGst -- -- -- -- -- -- -- -- -- -- -- -- -- --
Raw TAF
KSEA 220520Z 2206/2312 VRB03KT 5SM BR SCT002
  FM221100 VRB03KT 2SM BR BKN002
  FM221200 VRB03KT 1/2SM FG VV002
  FM221900 03004KT 2SM BR BKN004
  FM222100 35005KT P6SM FEW010
  FM230300 03004KT P6SM SKC


Raw METAR
KSEA 220628Z 00000KT 1 3/4SM BR FEW002 08/07 A2999 RMK AO2 TWR VIS 2 T00830072
KSEA 220553Z 00000KT 3SM BR FEW002 08/08 A2999 RMK AO2 SLP164 T00830078 10133 20083 56001
KSEA 220453Z 00000KT 5SM BR FEW002 09/07 A3000 RMK AO2 SLP165 T00890067
KSEA 220444Z 00000KT 4SM BR FEW002 09/08 A3000 RMK AO2 T00940078
KSEA 220353Z 00000KT 7SM CLR 09/07 A2999 RMK AO2 SLP164 T00890067

METAR Board
Radar Display
Forecast Discussion
For situational awareness. Not to be used for flight planning purposes.